Time;durP1;ratioP1;P1;durP2;ratioP2;P2;SDS_P1;SDS_P2;PMS_P1;PMS_P2;Temp;Humidity;BMP_temperature;BMP_pressure;BME280_temperature;BME280_humidity;BME280_pressure;Samples;Min_cycle;Max_cycle;Signal;HPM_P1;HPM_P2
2020/12/13 00:01:45;;;;;;;6.07;5.57;;;10.20;81.10;;;;;;5099675;28;20469;-78
2020/12/13 00:04:13;;;;;;;6.93;6.00;;;10.20;81.30;;;;;;5093483;28;20452;-77
2020/12/13 00:06:39;;;;;;;5.80;5.30;;;10.30;81.30;;;;;;5092310;28;20458;-76
2020/12/13 00:09:06;;;;;;;5.50;5.10;;;10.30;80.80;;;;;;5101504;28;20486;-77
2020/12/13 00:11:35;;;;;;;4.60;4.20;;;10.30;80.70;;;;;;5096077;28;20450;-80
2020/12/13 00:14:03;;;;;;;6.00;5.50;;;10.30;80.50;;;;;;5092430;28;20448;-77
2020/12/13 00:16:29;;;;;;;6.53;5.97;;;10.30;80.50;;;;;;5101315;28;20485;-77
2020/12/13 00:18:56;;;;;;;5.63;5.10;;;10.30;80.40;;;;;;5094565;28;20444;-78
2020/12/13 00:21:26;;;;;;;5.60;5.20;;;10.40;80.50;;;;;;5090925;28;20455;-78
2020/12/13 00:23:54;;;;;;;6.70;5.53;;;10.30;80.40;;;;;;5107606;28;21052;-77
2020/12/13 00:26:21;;;;;;;6.20;5.60;;;10.30;80.40;;;;;;5116392;28;20538;-79
2020/12/13 00:28:50;;;;;;;6.30;5.80;;;10.30;80.30;;;;;;5107008;28;20482;-78
2020/12/13 00:31:18;;;;;;;5.53;5.03;;;10.30;81.00;;;;;;5108382;28;20447;-79
2020/12/13 00:33:45;;;;;;;6.30;5.80;;;10.30;80.40;;;;;;5095675;28;20485;-78
2020/12/13 00:36:12;;;;;;;5.40;4.90;;;10.30;80.60;;;;;;5096114;28;20467;-79
2020/12/13 00:38:48;;;;;;;4.63;4.23;;;10.30;80.60;;;;;;5095707;28;20841;-78
2020/12/13 00:41:14;;;;;;;5.40;5.00;;;10.30;80.40;;;;;;5098100;28;20526;-79
2020/12/13 00:43:45;;;;;;;5.70;5.20;;;10.30;80.40;;;;;;5101181;28;20876;-78
2020/12/13 00:46:19;;;;;;;6.03;5.53;;;10.30;80.30;;;;;;5115812;28;20458;-79
2020/12/13 00:48:51;;;;;;;6.27;5.00;;;10.30;80.30;;;;;;5103060;28;20850;-78
2020/12/13 00:51:24;;;;;;;5.40;4.90;;;10.30;80.30;;;;;;5100822;28;20853;-78
2020/12/13 00:53:52;;;;;;;5.90;5.40;;;10.30;80.50;;;;;;5095492;28;20478;-79
2020/12/13 00:56:23;;;;;;;7.83;4.67;;;10.30;80.60;;;;;;5113761;28;20460;-78
2020/12/13 00:58:50;;;;;;;5.60;5.10;;;10.30;80.60;;;;;;5115836;28;20446;-78
2020/12/13 01:01:18;;;;;;;5.43;4.90;;;10.30;80.60;;;;;;5099458;28;21010;-78
2020/12/13 01:03:47;;;;;;;4.53;4.23;;;10.30;80.70;;;;;;5095348;28;20440;-78
2020/12/13 01:06:25;;;;;;;4.83;4.40;;;10.30;80.70;;;;;;5111182;28;20953;-78
2020/12/13 01:08:58;;;;;;;5.30;4.80;;;10.20;80.60;;;;;;5106728;28;20999;-78
2020/12/13 01:11:26;;;;;;;4.53;4.13;;;10.20;80.40;;;;;;5099661;28;20449;-77
2020/12/13 01:13:55;;;;;;;5.47;4.97;;;10.10;80.40;;;;;;5097310;28;20448;-78
2020/12/13 01:16:29;;;;;;;4.63;4.30;;;10.10;80.60;;;;;;5107694;28;20444;-78
2020/12/13 01:19:02;;;;;;;4.80;4.40;;;10.10;81.00;;;;;;5115624;28;20847;-79
2020/12/13 01:21:32;;;;;;;4.53;4.23;;;10.10;80.80;;;;;;5101050;28;20506;-80
2020/12/13 01:24:03;;;;;;;4.03;3.73;;;10.10;80.60;;;;;;5095852;28;21012;-79
2020/12/13 01:26:30;;;;;;;4.07;3.67;;;10.10;80.60;;;;;;5101508;28;20476;-79
2020/12/13 01:28:56;;;;;;;4.27;3.93;;;10.10;80.70;;;;;;5109113;28;20486;-78
2020/12/13 01:31:28;;;;;;;4.53;4.20;;;10.10;80.70;;;;;;5105115;28;20450;-79
2020/12/13 01:33:54;;;;;;;3.57;3.30;;;10.10;80.70;;;;;;5109565;28;20452;-80
2020/12/13 01:36:26;;;;;;;4.10;3.80;;;10.10;80.70;;;;;;5114964;28;20460;-78
2020/12/13 01:38:57;;;;;;;5.27;4.77;;;10.10;80.70;;;;;;5109461;28;20465;-77
2020/12/13 01:41:24;;;;;;;4.27;3.97;;;10.10;80.70;;;;;;5092902;28;20448;-77
2020/12/13 01:43:59;;;;;;;4.83;4.43;;;10.10;80.70;;;;;;5098359;28;20456;-77
2020/12/13 01:46:26;;;;;;;4.50;4.10;;;10.10;80.70;;;;;;5094506;28;20457;-79
2020/12/13 01:49:01;;;;;;;4.57;4.27;;;10.10;80.70;;;;;;5095507;28;20492;-78
2020/12/13 01:51:42;;;;;;;4.23;3.90;;;10.10;80.50;;;;;;5093896;28;20545;-77
2020/12/13 01:54:17;;;;;;;9.23;5.17;;;10.10;80.50;;;;;;5105063;28;21001;-78
2020/12/13 01:56:57;;;;;;;5.53;5.10;;;10.20;80.60;;;;;;5114521;28;20984;-78
2020/12/13 01:59:41;;;;;;;5.30;4.80;;;10.10;80.40;;;;;;5099602;28;20522;-79
2020/12/13 02:02:11;;;;;;;5.40;4.90;;;10.20;80.40;;;;;;5109541;28;20943;-79
2020/12/13 02:04:41;;;;;;;5.80;5.40;;;10.20;80.40;;;;;;5112561;28;20549;-78
2020/12/13 02:07:08;;;;;;;4.73;4.30;;;10.20;80.20;;;;;;5094767;28;20447;-78
2020/12/13 02:09:36;;;;;;;6.00;5.00;;;10.20;80.20;;;;;;5093593;28;20498;-79
2020/12/13 02:14:47;;;;;;;4.80;4.40;;;10.20;80.20;;;;;;5080420;28;20452;-79
2020/12/13 02:17:14;;;;;;;5.23;4.83;;;10.20;80.00;;;;;;5108657;28;20456;-79
2020/12/13 02:19:42;;;;;;;5.13;4.60;;;10.20;79.90;;;;;;5111059;28;20963;-78
2020/12/13 02:22:14;;;;;;;4.33;3.93;;;10.20;79.80;;;;;;5094191;28;20453;-78
2020/12/13 02:24:40;;;;;;;4.60;4.30;;;10.30;80.00;;;;;;5094183;28;20558;-79
2020/12/13 02:27:14;;;;;;;4.60;4.20;;;10.20;79.90;;;;;;5109338;28;20460;-79
2020/12/13 02:29:40;;;;;;;4.50;4.10;;;10.30;79.80;;;;;;5111869;28;20831;-79
2020/12/13 02:32:07;;;;;;;4.53;4.23;;;10.30;79.80;;;;;;5093431;28;20447;-79
2020/12/13 02:34:33;;;;;;;4.67;4.27;;;10.20;79.60;;;;;;5101274;28;20453;-80
2020/12/13 02:37:00;;;;;;;4.67;3.70;;;10.20;79.60;;;;;;5095821;28;20462;-79
2020/12/13 02:39:27;;;;;;;4.43;4.03;;;10.20;79.80;;;;;;5106022;28;20461;-79
2020/12/13 02:42:03;;;;;;;4.00;3.50;;;10.20;79.90;;;;;;5101473;28;20450;-78
2020/12/13 02:44:33;;;;;;;4.10;3.80;;;10.20;79.80;;;;;;5101295;28;20439;-80
2020/12/13 02:46:59;;;;;;;4.90;4.33;;;10.30;79.90;;;;;;5111330;28;20802;-79
2020/12/13 02:49:26;;;;;;;3.97;3.77;;;10.20;79.70;;;;;;5097140;28;20506;-79
2020/12/13 02:51:56;;;;;;;4.60;4.20;;;10.30;79.90;;;;;;5093938;28;20968;-79
2020/12/13 02:54:22;;;;;;;6.30;4.03;;;10.30;79.70;;;;;;5097330;28;20490;-79
2020/12/13 02:56:50;;;;;;;3.80;3.40;;;10.30;79.50;;;;;;5113735;28;20449;-79
2020/12/13 02:59:16;;;;;;;3.30;3.03;;;10.30;79.50;;;;;;5110668;28;20522;-78
2020/12/13 03:01:43;;;;;;;4.60;4.20;;;10.30;79.50;;;;;;5099068;28;20466;-78
2020/12/13 03:04:12;;;;;;;3.80;3.50;;;10.30;79.60;;;;;;5093095;28;20498;-77
2020/12/13 03:06:39;;;;;;;4.30;4.00;;;10.30;79.60;;;;;;5094297;28;20457;-78
2020/12/13 03:09:07;;;;;;;4.20;3.53;;;10.20;80.20;;;;;;5099045;28;20486;-78
2020/12/13 03:11:34;;;;;;;3.80;3.50;;;10.20;79.70;;;;;;5102153;28;20458;-79
2020/12/13 03:14:01;;;;;;;3.70;3.40;;;10.20;79.90;;;;;;5100024;28;20533;-80
2020/12/13 03:16:28;;;;;;;3.57;3.27;;;10.20;79.80;;;;;;5103342;28;20906;-78
2020/12/13 03:18:54;;;;;;;3.47;2.87;;;10.20;79.70;;;;;;5113542;28;20502;-79
2020/12/13 03:21:21;;;;;;;3.00;2.80;;;10.20;79.50;;;;;;5102825;28;21029;-78
2020/12/13 03:23:47;;;;;;;5.97;3.70;;;10.20;79.50;;;;;;5105113;28;20483;-77
2020/12/13 03:26:14;;;;;;;4.10;3.80;;;10.20;79.60;;;;;;5108648;28;20452;-77
2020/12/13 03:28:40;;;;;;;3.93;3.60;;;10.10;79.60;;;;;;5091766;28;20487;-78
2020/12/13 03:31:08;;;;;;;3.97;3.57;;;10.10;79.60;;;;;;5097385;28;20456;-77
2020/12/13 03:33:34;;;;;;;3.57;3.27;;;10.10;79.80;;;;;;5109800;28;20544;-78
2020/12/13 03:36:04;;;;;;;3.37;3.07;;;10.10;79.90;;;;;;5099995;28;20512;-77
2020/12/13 03:38:30;;;;;;;3.10;2.80;;;10.10;80.00;;;;;;5104629;28;20446;-78
2020/12/13 03:40:57;;;;;;;3.80;3.50;;;10.10;80.10;;;;;;5113010;28;20449;-77
2020/12/13 03:43:23;;;;;;;3.17;2.97;;;10.10;80.00;;;;;;5108753;28;20453;-76
2020/12/13 03:45:50;;;;;;;3.93;3.53;;;10.00;79.60;;;;;;5112625;28;20454;-77
2020/12/13 03:48:17;;;;;;;3.40;3.10;;;10.00;79.70;;;;;;5106289;28;20481;-77
2020/12/13 03:50:44;;;;;;;5.27;3.10;;;10.00;79.80;;;;;;5100683;28;20821;-77
2020/12/13 03:53:12;;;;;;;3.10;2.90;;;10.00;80.10;;;;;;5094358;28;20457;-77
2020/12/13 03:55:40;;;;;;;3.70;3.50;;;10.00;80.00;;;;;;5093921;28;20455;-78
2020/12/13 03:58:08;;;;;;;4.13;3.73;;;10.00;80.00;;;;;;5097357;28;20459;-78
2020/12/13 04:00:35;;;;;;;2.93;2.73;;;10.00;80.00;;;;;;5099291;28;20974;-78
2020/12/13 04:03:04;;;;;;;3.43;3.13;;;10.00;80.00;;;;;;5117002;28;20564;-77
2020/12/13 04:05:33;;;;;;;2.97;2.77;;;10.00;80.00;;;;;;5113698;28;20453;-77
2020/12/13 04:08:06;;;;;;;3.43;3.13;;;10.00;79.80;;;;;;5112348;28;20486;-77
2020/12/13 04:10:32;;;;;;;3.70;3.40;;;10.00;79.80;;;;;;5097558;28;20999;-76
2020/12/13 04:12:59;;;;;;;3.97;3.50;;;10.00;79.80;;;;;;5097091;28;20454;-77
2020/12/13 04:15:25;;;;;;;3.70;3.40;;;10.00;79.80;;;;;;5098380;28;20817;-79
2020/12/13 04:17:55;;;;;;;3.37;3.17;;;10.00;79.80;;;;;;5099044;28;20483;-77
2020/12/13 04:20:24;;;;;;;3.30;3.10;;;10.10;79.80;;;;;;5100519;28;20450;-78
2020/12/13 04:22:51;;;;;;;3.40;3.20;;;10.10;79.70;;;;;;5105892;28;20450;-77
2020/12/13 04:25:19;;;;;;;5.27;3.50;;;10.10;79.60;;;;;;5098375;28;20465;-77
2020/12/13 04:27:48;;;;;;;3.60;3.30;;;10.10;79.60;;;;;;5101764;28;20455;-77
2020/12/13 04:30:15;;;;;;;3.40;3.10;;;10.10;79.60;;;;;;5114206;28;20461;-77
2020/12/13 04:32:41;;;;;;;3.17;2.97;;;10.20;79.80;;;;;;5104596;28;20443;-78
2020/12/13 04:35:08;;;;;;;3.70;3.40;;;10.20;79.70;;;;;;5095659;28;20452;-78
2020/12/13 04:37:35;;;;;;;3.47;3.17;;;10.20;79.60;;;;;;5110228;28;20488;-77
2020/12/13 04:40:04;;;;;;;3.47;3.17;;;10.20;79.50;;;;;;5105434;28;20879;-78
2020/12/13 04:42:36;;;;;;;3.40;3.10;;;10.20;79.50;;;;;;5104977;28;20463;-78
2020/12/13 04:45:05;;;;;;;3.00;2.80;;;10.20;79.30;;;;;;5096992;28;20454;-79
2020/12/13 04:47:33;;;;;;;3.90;3.10;;;10.20;79.30;;;;;;5096356;28;20457;-76
2020/12/13 04:50:05;;;;;;;3.70;3.40;;;10.20;79.30;;;;;;5096109;28;20497;-79
2020/12/13 04:52:32;;;;;;;4.00;3.70;;;10.20;79.40;;;;;;5096783;28;20468;-78
2020/12/13 04:55:03;;;;;;;5.03;3.33;;;10.20;79.40;;;;;;5115121;28;20543;-80
2020/12/13 04:57:31;;;;;;;4.80;3.57;;;10.30;79.30;;;;;;5096623;28;20962;-76
2020/12/13 05:00:00;;;;;;;3.00;2.80;;;10.30;79.20;;;;;;5095918;28;20977;-77
2020/12/13 05:02:27;;;;;;;3.70;3.37;;;10.20;79.20;;;;;;5107668;28;20939;-77
2020/12/13 05:04:53;;;;;;;3.83;2.90;;;10.20;79.20;;;;;;5096235;28;20462;-77
2020/12/13 05:07:21;;;;;;;3.83;3.53;;;10.20;79.20;;;;;;5110704;28;20455;-77
2020/12/13 05:09:52;;;;;;;3.67;3.40;;;10.20;79.90;;;;;;5096705;28;20534;-77
2020/12/13 05:12:23;;;;;;;4.00;3.60;;;10.20;79.30;;;;;;5098530;28;20501;-77
2020/12/13 05:14:50;;;;;;;3.83;3.47;;;10.20;79.30;;;;;;5093694;28;20459;-77
2020/12/13 05:17:17;;;;;;;3.47;3.17;;;10.20;79.30;;;;;;5097247;28;20466;-77
2020/12/13 05:19:43;;;;;;;3.10;2.80;;;10.20;79.30;;;;;;5097281;28;20452;-77
2020/12/13 05:22:10;;;;;;;4.07;3.70;;;10.20;79.30;;;;;;5099795;28;20458;-77
2020/12/13 05:24:37;;;;;;;7.10;3.50;;;10.20;79.40;;;;;;5094651;28;20472;-77
2020/12/13 05:27:05;;;;;;;3.37;3.17;;;10.30;79.60;;;;;;5096594;28;20457;-78
2020/12/13 05:29:34;;;;;;;5.60;4.03;;;10.30;79.50;;;;;;5106836;28;20482;-77
2020/12/13 05:32:15;;;;;;;3.53;3.23;;;10.30;79.40;;;;;;5109316;28;20476;-77
2020/12/13 05:34:43;;;;;;;3.93;3.50;;;10.30;79.20;;;;;;5104963;28;20500;-76
2020/12/13 05:37:15;;;;;;;4.23;3.03;;;10.30;79.10;;;;;;5108841;28;20892;-77
2020/12/13 05:39:43;;;;;;;3.03;2.80;;;10.30;78.80;;;;;;5099884;28;20519;-77
2020/12/13 05:42:13;;;;;;;3.60;3.30;;;10.30;78.80;;;;;;5105091;28;20487;-76
2020/12/13 05:47:48;;;;;;;4.63;3.57;;;10.30;79.10;;;;;;5104623;28;20512;-77
2020/12/13 05:52:58;;;;;;;3.83;3.10;;;10.30;79.30;;;;;;5102659;28;20973;-77
2020/12/13 05:55:25;;;;;;;3.43;2.33;;;10.30;79.00;;;;;;5114634;28;20456;-77
2020/12/13 05:57:52;;;;;;;3.10;2.80;;;10.30;79.00;;;;;;5099516;28;20494;-77
2020/12/13 06:00:19;;;;;;;2.70;2.27;;;10.30;79.10;;;;;;5094408;28;20450;-77
2020/12/13 06:02:49;;;;;;;3.17;2.50;;;10.30;79.20;;;;;;5098418;28;20478;-77
2020/12/13 06:05:16;;;;;;;2.70;2.53;;;10.30;79.10;;;;;;5094388;28;20460;-77
2020/12/13 06:07:48;;;;;;;3.23;2.93;;;10.40;79.20;;;;;;5093106;28;20453;-76
2020/12/13 06:10:24;;;;;;;3.20;2.97;;;10.40;79.20;;;;;;5111835;28;20478;-76
2020/12/13 06:12:59;;;;;;;3.60;3.30;;;10.40;78.90;;;;;;5108466;28;20531;-77
2020/12/13 06:15:30;;;;;;;4.03;3.70;;;10.40;78.80;;;;;;5096965;28;20525;-78
2020/12/13 06:17:58;;;;;;;3.43;3.23;;;10.40;78.80;;;;;;5095849;28;20506;-78
2020/12/13 06:20:24;;;;;;;2.67;2.47;;;10.40;78.80;;;;;;5099614;28;20500;-76
2020/12/13 06:22:52;;;;;;;2.80;2.60;;;10.40;78.90;;;;;;5098126;28;20952;-76
2020/12/13 06:25:20;;;;;;;6.77;2.73;;;10.40;78.90;;;;;;5099802;28;20454;-76
2020/12/13 06:27:48;;;;;;;3.50;2.83;;;10.40;78.80;;;;;;5099173;28;20894;-76
2020/12/13 06:30:16;;;;;;;3.27;2.97;;;10.40;78.70;;;;;;5108227;28;20527;-77
2020/12/13 06:32:43;;;;;;;2.83;2.37;;;10.40;78.60;;;;;;5099896;28;20479;-76
2020/12/13 06:35:11;;;;;;;3.63;3.27;;;10.40;78.50;;;;;;5099792;28;20454;-77
2020/12/13 06:37:38;;;;;;;2.60;2.40;;;10.40;78.40;;;;;;5107472;28;20453;-76
2020/12/13 06:40:06;;;;;;;2.70;2.50;;;10.40;78.50;;;;;;5100610;28;20455;-74
2020/12/13 06:42:37;;;;;;;3.30;2.70;;;10.40;78.50;;;;;;5098568;28;20468;-78
2020/12/13 06:45:08;;;;;;;2.87;2.67;;;10.40;78.50;;;;;;5093450;28;20477;-77
2020/12/13 06:47:39;;;;;;;2.77;2.57;;;10.40;78.40;;;;;;5100288;28;20452;-76
2020/12/13 06:50:05;;;;;;;2.40;2.20;;;10.40;78.30;;;;;;5105021;28;20568;-76
2020/12/13 06:52:34;;;;;;;2.03;1.93;;;10.40;78.40;;;;;;5104123;28;20439;-76
2020/12/13 06:55:02;;;;;;;2.60;2.40;;;10.40;78.30;;;;;;5101470;28;20445;-77
2020/12/13 06:57:33;;;;;;;2.00;1.90;;;10.30;78.30;;;;;;5113871;28;20446;-76
2020/12/13 07:00:05;;;;;;;2.53;2.33;;;10.30;78.30;;;;;;5098106;28;20956;-77
2020/12/13 07:02:48;;;;;;;3.43;2.93;;;10.40;78.30;;;;;;5109163;28;20941;-76
2020/12/13 07:05:15;;;;;;;1.80;1.70;;;10.40;78.30;;;;;;5101926;28;21007;-76
2020/12/13 07:07:46;;;;;;;1.97;1.80;;;10.40;78.10;;;;;;5096232;28;21033;-77
2020/12/13 07:10:13;;;;;;;2.20;2.10;;;10.40;77.90;;;;;;5105644;28;20492;-77
2020/12/13 07:12:48;;;;;;;2.50;2.30;;;10.40;78.40;;;;;;5112651;28;20946;-77
2020/12/13 07:15:21;;;;;;;2.40;2.20;;;10.40;77.50;;;;;;5107394;28;21041;-77
2020/12/13 07:17:50;;;;;;;2.30;2.07;;;10.40;77.40;;;;;;5111416;28;20497;-78
2020/12/13 07:20:16;;;;;;;2.07;1.97;;;10.40;78.30;;;;;;5106424;28;20472;-76
2020/12/13 07:22:44;;;;;;;2.17;2.00;;;10.40;77.50;;;;;;5097222;28;20454;-80
2020/12/13 07:25:10;;;;;;;2.60;2.03;;;10.40;77.30;;;;;;5098909;28;20449;-80
2020/12/13 07:27:37;;;;;;;1.70;1.60;;;10.40;77.40;;;;;;5095011;28;20457;-81
2020/12/13 07:30:11;;;;;;;2.00;1.80;;;10.40;77.40;;;;;;5104260;28;20482;-82
2020/12/13 07:32:39;;;;;;;2.07;1.97;;;10.40;77.30;;;;;;5104969;28;20455;-82
2020/12/13 07:35:11;;;;;;;2.10;2.00;;;10.40;77.30;;;;;;5110371;28;20558;-83
2020/12/13 07:37:39;;;;;;;1.57;1.47;;;10.40;77.20;;;;;;5095527;28;20463;-81
2020/12/13 07:40:11;;;;;;;2.37;2.17;;;10.50;77.20;;;;;;5093846;28;20460;-83
2020/12/13 07:42:38;;;;;;;2.20;2.10;;;10.40;77.00;;;;;;5092907;28;20452;-82
2020/12/13 07:45:05;;;;;;;2.80;1.80;;;10.40;77.10;;;;;;5098506;28;20454;-78
2020/12/13 07:47:32;;;;;;;1.77;1.67;;;10.40;77.00;;;;;;5093165;28;20442;-79
2020/12/13 07:50:04;;;;;;;2.20;2.03;;;10.40;77.20;;;;;;5096563;28;21089;-79
2020/12/13 07:52:31;;;;;;;1.97;1.87;;;10.40;77.40;;;;;;5092788;28;20857;-79
2020/12/13 07:55:06;;;;;;;2.10;2.00;;;10.40;77.40;;;;;;5091203;28;20451;-79
2020/12/13 07:57:35;;;;;;;2.77;1.70;;;10.40;77.60;;;;;;5092849;28;20484;-79
2020/12/13 08:00:13;;;;;;;2.10;2.00;;;10.40;77.70;;;;;;5092626;28;20448;-79
2020/12/13 08:02:40;;;;;;;2.07;1.90;;;10.40;77.90;;;;;;5092302;28;20439;-79
2020/12/13 08:05:18;;;;;;;2.17;1.97;;;10.40;78.00;;;;;;5092542;28;20443;-80
2020/12/13 08:07:45;;;;;;;2.40;2.20;;;10.40;78.30;;;;;;5092371;28;20946;-79
2020/12/13 08:10:11;;;;;;;1.90;1.80;;;10.40;78.50;;;;;;5092334;28;20498;-79
2020/12/13 08:12:40;;;;;;;1.80;1.70;;;10.40;78.70;;;;;;5092745;28;20987;-79
2020/12/13 08:15:07;;;;;;;2.00;1.90;;;10.40;78.80;;;;;;5092171;28;20514;-78
2020/12/13 08:17:38;;;;;;;2.23;1.73;;;10.30;78.90;;;;;;5091989;28;20451;-80
2020/12/13 08:20:20;;;;;;;2.80;2.30;;;10.30;79.20;;;;;;5091580;28;20940;-80
2020/12/13 08:22:53;;;;;;;3.00;2.03;;;10.40;79.40;;;;;;5092442;28;20462;-78
2020/12/13 08:25:20;;;;;;;2.40;2.20;;;10.30;79.60;;;;;;5092073;28;20440;-79
2020/12/13 08:27:52;;;;;;;2.83;2.50;;;10.40;79.80;;;;;;5092295;28;20456;-79
2020/12/13 08:30:33;;;;;;;2.37;2.20;;;10.40;80.00;;;;;;5091938;28;20490;-78
2020/12/13 08:33:00;;;;;;;2.60;2.40;;;10.40;80.10;;;;;;5092025;28;20957;-79
2020/12/13 08:35:32;;;;;;;2.80;2.60;;;10.40;80.10;;;;;;5092137;28;20874;-79
2020/12/13 08:38:00;;;;;;;2.30;2.10;;;10.40;80.20;;;;;;5091994;28;20444;-79
2020/12/13 08:40:40;;;;;;;2.67;2.43;;;10.40;80.20;;;;;;5073766;28;20455;-79
2020/12/13 08:43:09;;;;;;;2.00;1.90;;;10.50;80.30;;;;;;5092432;28;20814;-79
2020/12/13 08:45:35;;;;;;;3.73;2.30;;;10.50;80.10;;;;;;5095585;28;20478;-80
2020/12/13 08:48:04;;;;;;;3.17;1.90;;;10.50;80.20;;;;;;5096383;28;20449;-79
2020/12/13 08:50:42;;;;;;;2.30;2.10;;;10.60;80.30;;;;;;5116218;28;20451;-79
2020/12/13 08:53:33;;;;;;;2.63;2.43;;;10.60;80.30;;;;;;5115784;28;20462;-80
2020/12/13 08:56:06;;;;;;;2.97;2.77;;;10.70;80.30;;;;;;5115480;28;20441;-79
2020/12/13 08:58:57;;;;;;;3.30;3.10;;;10.70;80.30;;;;;;5115839;28;20448;-80
2020/12/13 09:01:26;;;;;;;2.90;2.70;;;10.70;80.20;;;;;;5097188;28;20497;-80
2020/12/13 09:03:53;;;;;;;3.33;3.00;;;10.70;80.20;;;;;;5095053;28;20472;-79
2020/12/13 09:06:56;;;;;;;3.10;2.80;;;10.80;80.30;;;;;;5094410;28;20794;-79
2020/12/13 09:09:31;;;;;;;2.70;2.60;;;10.90;80.00;;;;;;5102606;28;20512;-80
2020/12/13 09:11:59;;;;;;;3.50;3.00;;;10.90;79.90;;;;;;5115679;28;20484;-80
2020/12/13 09:14:37;;;;;;;4.83;2.53;;;11.00;79.90;;;;;;5114095;28;20537;-80
2020/12/13 09:17:11;;;;;;;2.93;2.60;;;11.00;79.80;;;;;;5115068;28;20480;-80
2020/12/13 09:19:52;;;;;;;2.60;2.40;;;11.10;79.80;;;;;;5115616;28;20487;-79
2020/12/13 09:22:23;;;;;;;2.77;2.50;;;11.10;79.40;;;;;;5115457;28;20478;-81
2020/12/13 09:24:50;;;;;;;4.30;3.30;;;11.20;79.30;;;;;;5115207;28;20480;-80
2020/12/13 09:27:26;;;;;;;3.53;3.23;;;11.20;78.90;;;;;;5115371;28;20451;-80
2020/12/13 09:29:54;;;;;;;3.33;3.03;;;11.20;78.50;;;;;;5115123;28;20583;-79
2020/12/13 09:32:22;;;;;;;3.70;2.87;;;11.20;78.40;;;;;;5114843;28;20470;-79
2020/12/13 09:34:49;;;;;;;3.73;3.43;;;11.30;78.40;;;;;;5115453;28;20455;-80
2020/12/13 09:37:18;;;;;;;3.10;2.90;;;11.30;78.40;;;;;;5115363;28;20472;-79
2020/12/13 09:39:45;;;;;;;4.27;3.87;;;11.30;78.30;;;;;;5102982;28;20816;-79
2020/12/13 09:42:13;;;;;;;3.90;3.13;;;11.40;78.50;;;;;;5094365;28;20456;-79
2020/12/13 09:44:39;;;;;;;2.80;2.60;;;11.40;78.10;;;;;;5094824;28;20457;-80
2020/12/13 09:47:07;;;;;;;4.20;2.77;;;11.50;77.70;;;;;;5094414;28;20930;-80
2020/12/13 09:49:34;;;;;;;2.80;2.60;;;11.50;77.30;;;;;;5109860;28;20572;-80
2020/12/13 09:52:02;;;;;;;3.30;3.00;;;11.50;76.60;;;;;;5114878;28;20461;-80
2020/12/13 09:54:30;;;;;;;3.20;3.00;;;11.50;76.20;;;;;;5112066;28;20454;-80
2020/12/13 09:56:58;;;;;;;4.77;2.80;;;11.50;75.80;;;;;;5112461;28;20446;-82
2020/12/13 09:59:26;;;;;;;3.50;3.30;;;11.50;75.70;;;;;;5094558;28;20468;-80
2020/12/13 10:01:53;;;;;;;3.60;3.30;;;11.50;75.60;;;;;;5095529;28;20444;-80
2020/12/13 10:04:22;;;;;;;4.77;3.43;;;11.60;75.80;;;;;;5109060;28;20816;-79
2020/12/13 10:09:34;;;;;;;3.90;3.60;;;11.70;75.90;;;;;;5111529;28;20503;-79
2020/12/13 10:12:00;;;;;;;3.20;3.00;;;11.80;75.70;;;;;;5098194;28;20456;-79
2020/12/13 10:14:27;;;;;;;3.53;3.23;;;11.80;75.00;;;;;;5097229;28;21132;-77
2020/12/13 10:16:54;;;;;;;3.63;3.37;;;11.80;74.40;;;;;;5113918;28;20449;-78
2020/12/13 10:19:24;;;;;;;3.73;3.10;;;11.80;74.40;;;;;;5112556;28;20452;-79
2020/12/13 10:21:51;;;;;;;3.00;2.67;;;11.70;74.40;;;;;;5114330;28;21213;-79
2020/12/13 10:24:18;;;;;;;2.60;2.40;;;11.80;74.60;;;;;;5112413;28;20468;-79
2020/12/13 10:26:48;;;;;;;2.83;2.50;;;11.80;74.00;;;;;;5093829;28;20456;-80
2020/12/13 10:29:14;;;;;;;3.00;2.80;;;11.70;73.80;;;;;;5094215;28;20489;-78
2020/12/13 10:31:42;;;;;;;2.77;2.50;;;11.70;73.90;;;;;;5111282;28;20503;-80
2020/12/13 10:34:11;;;;;;;2.10;2.00;;;11.80;73.90;;;;;;5113493;28;20461;-79
2020/12/13 10:36:40;;;;;;;3.93;2.50;;;11.80;73.80;;;;;;5095633;28;20454;-78
2020/12/13 10:39:08;;;;;;;2.00;1.90;;;12.00;73.90;;;;;;5093706;28;20454;-76
2020/12/13 10:41:35;;;;;;;1.97;1.80;;;12.50;74.00;;;;;;5109719;28;20450;-78
2020/12/13 10:44:04;;;;;;;2.83;2.00;;;12.80;71.90;;;;;;5113719;28;20442;-80
2020/12/13 10:46:31;;;;;;;3.87;3.03;;;13.10;69.90;;;;;;5101490;28;20459;-77
2020/12/13 10:48:58;;;;;;;3.63;1.93;;;13.30;68.90;;;;;;5100701;28;20857;-77
2020/12/13 10:51:25;;;;;;;1.60;1.50;;;13.30;67.70;;;;;;5094349;28;20451;-79
2020/12/13 10:53:52;;;;;;;2.00;1.90;;;13.10;66.00;;;;;;5093337;28;20439;-78
2020/12/13 10:56:19;;;;;;;1.77;1.67;;;12.90;65.60;;;;;;5094445;28;20447;-79
2020/12/13 10:58:46;;;;;;;2.20;1.60;;;12.70;65.60;;;;;;5091127;28;20972;-79
2020/12/13 11:01:13;;;;;;;1.77;1.67;;;12.50;65.70;;;;;;5093501;28;20499;-78
2020/12/13 11:03:39;;;;;;;2.33;1.60;;;12.30;65.80;;;;;;5096452;28;20521;-77
2020/12/13 11:06:09;;;;;;;1.70;1.60;;;12.20;66.10;;;;;;5096922;28;20454;-77
2020/12/13 11:08:35;;;;;;;1.70;1.60;;;12.10;66.00;;;;;;5104148;28;20465;-77
2020/12/13 11:11:03;;;;;;;1.80;1.70;;;12.10;66.80;;;;;;5103594;28;20525;-77
2020/12/13 11:13:31;;;;;;;1.80;1.70;;;12.20;67.10;;;;;;5092762;28;20450;-77
2020/12/13 11:15:58;;;;;;;4.63;2.50;;;12.20;66.80;;;;;;5096260;28;20449;-78
2020/12/13 11:18:30;;;;;;;2.03;1.70;;;12.20;66.80;;;;;;5108954;28;20975;-77
2020/12/13 11:20:56;;;;;;;2.80;2.00;;;12.30;66.80;;;;;;5092923;28;21026;-77
2020/12/13 11:23:23;;;;;;;2.60;2.13;;;12.20;66.50;;;;;;5092522;28;20504;-77
2020/12/13 11:25:50;;;;;;;1.90;1.73;;;12.20;66.40;;;;;;5109485;28;20450;-77
2020/12/13 11:28:18;;;;;;;2.90;1.70;;;12.20;66.50;;;;;;5110478;28;20952;-78
2020/12/13 11:30:44;;;;;;;1.80;1.70;;;12.10;66.00;;;;;;5112811;28;20500;-76
2020/12/13 11:33:11;;;;;;;2.40;1.93;;;12.10;66.40;;;;;;5101224;28;20483;-77
2020/12/13 11:35:37;;;;;;;2.20;2.10;;;12.00;66.60;;;;;;5092574;28;20942;-77
2020/12/13 11:38:04;;;;;;;2.30;2.10;;;11.90;66.00;;;;;;5093911;28;20457;-78
2020/12/13 11:40:31;;;;;;;2.20;2.00;;;11.80;66.30;;;;;;5092759;28;20465;-78
2020/12/13 11:43:00;;;;;;;3.20;1.97;;;11.80;66.90;;;;;;5093135;28;20821;-77
2020/12/13 11:45:27;;;;;;;4.43;3.90;;;11.80;67.30;;;;;;5102771;28;20452;-77
2020/12/13 11:47:54;;;;;;;7.07;3.63;;;11.80;67.70;;;;;;5111468;28;20446;-78
2020/12/13 11:50:20;;;;;;;1.90;1.80;;;11.80;67.90;;;;;;5093229;28;20985;-77
2020/12/13 11:52:47;;;;;;;5.37;2.87;;;11.80;67.80;;;;;;5094265;28;20457;-78
2020/12/13 11:55:14;;;;;;;2.30;2.10;;;11.80;67.70;;;;;;5105133;28;20445;-78
2020/12/13 11:57:40;;;;;;;2.40;2.20;;;11.80;67.70;;;;;;5113016;28;20501;-76
2020/12/13 12:00:07;;;;;;;2.50;2.30;;;11.80;67.80;;;;;;5093167;28;20477;-76
2020/12/13 12:02:34;;;;;;;2.67;2.57;;;11.70;67.80;;;;;;5092409;28;20457;-77
2020/12/13 12:05:01;;;;;;;4.33;2.17;;;11.70;67.90;;;;;;5092418;28;20449;-77
2020/12/13 12:07:27;;;;;;;2.73;2.53;;;11.70;68.20;;;;;;5094372;28;20446;-77
2020/12/13 12:09:54;;;;;;;2.50;2.30;;;11.70;68.30;;;;;;5100256;28;20480;-77
2020/12/13 12:12:20;;;;;;;2.83;1.90;;;11.70;68.50;;;;;;5094231;28;20456;-79
2020/12/13 12:14:47;;;;;;;3.10;2.90;;;11.70;68.20;;;;;;5101740;28;20441;-76
2020/12/13 12:17:13;;;;;;;2.70;2.50;;;11.80;67.80;;;;;;5113126;28;20451;-77
2020/12/13 12:19:42;;;;;;;2.60;2.40;;;11.80;67.70;;;;;;5094720;28;20466;-77
2020/12/13 12:22:09;;;;;;;1.50;1.40;;;11.80;67.30;;;;;;5096193;28;20459;-78
2020/12/13 12:24:36;;;;;;;2.40;2.20;;;11.80;67.20;;;;;;5095990;28;20469;-77
2020/12/13 12:27:05;;;;;;;2.67;2.47;;;11.70;65.90;;;;;;5112165;28;20475;-77
2020/12/13 12:29:32;;;;;;;1.70;1.60;;;11.70;66.60;;;;;;5115939;28;20494;-78
2020/12/13 12:31:58;;;;;;;2.60;2.40;;;11.70;66.70;;;;;;5113672;28;20459;-77
2020/12/13 12:34:25;;;;;;;2.10;1.90;;;11.70;66.80;;;;;;5116339;28;20460;-78
2020/12/13 12:36:52;;;;;;;3.93;2.40;;;11.70;66.70;;;;;;5102493;28;20983;-79
2020/12/13 12:39:19;;;;;;;2.70;2.07;;;11.70;66.80;;;;;;5095949;28;20452;-76
2020/12/13 12:41:45;;;;;;;1.97;1.87;;;11.80;66.90;;;;;;5105152;28;20491;-77
2020/12/13 12:44:12;;;;;;;2.00;1.80;;;11.90;66.90;;;;;;5106220;28;20452;-77
2020/12/13 12:46:38;;;;;;;1.87;1.70;;;11.90;66.40;;;;;;5107983;28;20828;-78
2020/12/13 12:49:05;;;;;;;1.90;1.80;;;11.90;66.10;;;;;;5110370;28;20545;-77
2020/12/13 12:51:32;;;;;;;2.17;1.90;;;11.80;66.00;;;;;;5102508;28;20448;-77
2020/12/13 12:53:59;;;;;;;2.60;2.30;;;11.80;66.20;;;;;;5101090;28;20444;-77
2020/12/13 12:56:27;;;;;;;2.00;1.80;;;11.80;66.10;;;;;;5103417;28;20450;-77
2020/12/13 12:58:58;;;;;;;2.40;2.20;;;11.80;66.20;;;;;;5095356;28;20460;-77
2020/12/13 13:01:36;;;;;;;2.20;2.10;;;11.70;66.40;;;;;;5101745;28;20457;-77
2020/12/13 13:04:05;;;;;;;2.73;2.03;;;11.70;66.40;;;;;;5094967;28;20450;-77
2020/12/13 13:06:41;;;;;;;3.70;1.77;;;11.70;66.40;;;;;;5094812;28;20458;-77
2020/12/13 13:09:14;;;;;;;2.30;2.20;;;11.70;66.70;;;;;;5114664;28;20490;-77